sensor_id;sensor_type;location;lat;lon;timestamp;pressure;altitude;pressure_sealevel;temperature;humidity
3096;BME280;1558;42.700;23.360;2023-05-24T00:00:59;95115.94;;;13.45;100.00
3096;BME280;1558;42.700;23.360;2023-05-24T00:03:28;95095.78;;;13.27;100.00
3096;BME280;1558;42.700;23.360;2023-05-24T00:06:00;95128.91;;;13.36;100.00
3096;BME280;1558;42.700;23.360;2023-05-24T00:08:31;95121.03;;;13.31;100.00
3096;BME280;1558;42.700;23.360;2023-05-24T00:10:59;95103.16;;;13.11;100.00
3096;BME280;1558;42.700;23.360;2023-05-24T00:13:29;95124.81;;;13.11;100.00
3096;BME280;1558;42.700;23.360;2023-05-24T00:15:58;95128.03;;;13.01;100.00
3096;BME280;1558;42.700;23.360;2023-05-24T00:18:26;95126.22;;;13.05;100.00
3096;BME280;1558;42.700;23.360;2023-05-24T00:20:56;95107.50;;;13.00;100.00
3096;BME280;1558;42.700;23.360;2023-05-24T00:23:25;95010.97;;;12.41;100.00
3096;BME280;1558;42.700;23.360;2023-05-24T00:25:53;95114.84;;;13.15;100.00
3096;BME280;1558;42.700;23.360;2023-05-24T00:28:21;95118.34;;;13.00;100.00
3096;BME280;1558;42.700;23.360;2023-05-24T00:30:51;95109.97;;;12.73;100.00
3096;BME280;1558;42.700;23.360;2023-05-24T00:33:19;95125.94;;;12.63;100.00
3096;BME280;1558;42.700;23.360;2023-05-24T00:35:49;95102.44;;;12.51;100.00
3096;BME280;1558;42.700;23.360;2023-05-24T00:38:21;95093.91;;;12.49;100.00
3096;BME280;1558;42.700;23.360;2023-05-24T00:40:49;95108.50;;;12.76;100.00
3096;BME280;1558;42.700;23.360;2023-05-24T00:43:18;95080.28;;;12.61;100.00
3096;BME280;1558;42.700;23.360;2023-05-24T00:45:46;95110.16;;;12.80;100.00
3096;BME280;1558;42.700;23.360;2023-05-24T00:48:15;95109.53;;;12.87;100.00
3096;BME280;1558;42.700;23.360;2023-05-24T00:50:44;95062.91;;;12.47;100.00
3096;BME280;1558;42.700;23.360;2023-05-24T00:53:12;95116.00;;;12.82;100.00
3096;BME280;1558;42.700;23.360;2023-05-24T00:55:40;95121.16;;;12.87;100.00
3096;BME280;1558;42.700;23.360;2023-05-24T00:58:08;95114.31;;;12.93;100.00
3096;BME280;1558;42.700;23.360;2023-05-24T01:00:36;95117.56;;;12.83;100.00
3096;BME280;1558;42.700;23.360;2023-05-24T01:03:04;95089.69;;;12.67;100.00
3096;BME280;1558;42.700;23.360;2023-05-24T01:05:37;95097.66;;;12.76;100.00
3096;BME280;1558;42.700;23.360;2023-05-24T01:08:12;95108.81;;;12.74;100.00
3096;BME280;1558;42.700;23.360;2023-05-24T01:10:49;95090.06;;;12.50;100.00
3096;BME280;1558;42.700;23.360;2023-05-24T01:13:24;95109.00;;;12.66;100.00
3096;BME280;1558;42.700;23.360;2023-05-24T01:15:59;95111.09;;;12.57;100.00
3096;BME280;1558;42.700;23.360;2023-05-24T01:18:32;95122.53;;;12.81;100.00
3096;BME280;1558;42.700;23.360;2023-05-24T01:21:15;95119.81;;;13.28;100.00
3096;BME280;1558;42.700;23.360;2023-05-24T01:23:48;95095.03;;;12.95;100.00
3096;BME280;1558;42.700;23.360;2023-05-24T01:26:34;95116.84;;;12.86;100.00
3096;BME280;1558;42.700;23.360;2023-05-24T01:29:06;95129.84;;;12.65;100.00
3096;BME280;1558;42.700;23.360;2023-05-24T01:31:35;95128.66;;;12.78;100.00
3096;BME280;1558;42.700;23.360;2023-05-24T01:34:03;95123.59;;;12.93;100.00
3096;BME280;1558;42.700;23.360;2023-05-24T01:36:32;95138.94;;;13.20;100.00
3096;BME280;1558;42.700;23.360;2023-05-24T01:39:00;95120.09;;;13.23;100.00
3096;BME280;1558;42.700;23.360;2023-05-24T01:41:35;95088.50;;;12.80;100.00
3096;BME280;1558;42.700;23.360;2023-05-24T01:44:14;95120.53;;;12.78;100.00
3096;BME280;1558;42.700;23.360;2023-05-24T01:46:56;95108.47;;;12.60;100.00
3096;BME280;1558;42.700;23.360;2023-05-24T01:49:31;95084.44;;;12.43;100.00
3096;BME280;1558;42.700;23.360;2023-05-24T01:52:04;95125.25;;;12.66;100.00
3096;BME280;1558;42.700;23.360;2023-05-24T01:54:36;95102.81;;;12.65;100.00
3096;BME280;1558;42.700;23.360;2023-05-24T01:57:06;95113.97;;;12.79;100.00
3096;BME280;1558;42.700;23.360;2023-05-24T01:59:39;95078.28;;;12.43;100.00
3096;BME280;1558;42.700;23.360;2023-05-24T02:02:09;95122.97;;;12.52;100.00
3096;BME280;1558;42.700;23.360;2023-05-24T02:04:37;95120.44;;;12.59;100.00
3096;BME280;1558;42.700;23.360;2023-05-24T02:07:05;95116.59;;;12.60;100.00
3096;BME280;1558;42.700;23.360;2023-05-24T02:09:33;95124.00;;;12.48;100.00
3096;BME280;1558;42.700;23.360;2023-05-24T02:12:01;95127.47;;;12.33;100.00
3096;BME280;1558;42.700;23.360;2023-05-24T02:14:30;94974.44;;;11.29;100.00
3096;BME280;1558;42.700;23.360;2023-05-24T02:17:00;95114.97;;;12.28;100.00
3096;BME280;1558;42.700;23.360;2023-05-24T02:19:30;95114.97;;;12.28;100.00
3096;BME280;1558;42.700;23.360;2023-05-24T02:22:00;95098.94;;;12.35;100.00
3096;BME280;1558;42.700;23.360;2023-05-24T02:24:28;95116.91;;;12.43;100.00
3096;BME280;1558;42.700;23.360;2023-05-24T02:26:56;95112.09;;;12.37;100.00
3096;BME280;1558;42.700;23.360;2023-05-24T02:29:24;95107.31;;;12.30;100.00
3096;BME280;1558;42.700;23.360;2023-05-24T02:31:53;95126.03;;;12.23;100.00
3096;BME280;1558;42.700;23.360;2023-05-24T02:34:23;95117.81;;;12.19;100.00
3096;BME280;1558;42.700;23.360;2023-05-24T02:36:52;95110.75;;;12.15;100.00
3096;BME280;1558;42.700;23.360;2023-05-24T02:39:21;95113.13;;;12.16;100.00
3096;BME280;1558;42.700;23.360;2023-05-24T02:41:49;95112.63;;;11.99;100.00
3096;BME280;1558;42.700;23.360;2023-05-24T02:44:17;95111.56;;;11.88;100.00
3096;BME280;1558;42.700;23.360;2023-05-24T02:46:45;95081.69;;;11.69;100.00
3096;BME280;1558;42.700;23.360;2023-05-24T02:49:13;95098.50;;;11.90;100.00
3096;BME280;1558;42.700;23.360;2023-05-24T02:51:42;95093.47;;;12.04;100.00
3096;BME280;1558;42.700;23.360;2023-05-24T02:54:11;95104.84;;;12.25;100.00
3096;BME280;1558;42.700;23.360;2023-05-24T02:56:39;95096.47;;;12.14;100.00
3096;BME280;1558;42.700;23.360;2023-05-24T02:59:07;95107.56;;;12.25;100.00
3096;BME280;1558;42.700;23.360;2023-05-24T03:01:35;95106.88;;;12.28;100.00
3096;BME280;1558;42.700;23.360;2023-05-24T03:04:03;95112.59;;;12.27;100.00
3096;BME280;1558;42.700;23.360;2023-05-24T03:06:31;95116.28;;;12.34;100.00
3096;BME280;1558;42.700;23.360;2023-05-24T03:09:01;95126.00;;;12.35;100.00
3096;BME280;1558;42.700;23.360;2023-05-24T03:11:29;95117.88;;;12.35;100.00
3096;BME280;1558;42.700;23.360;2023-05-24T03:13:57;95124.16;;;12.39;100.00
3096;BME280;1558;42.700;23.360;2023-05-24T03:16:25;95133.13;;;12.43;100.00
3096;BME280;1558;42.700;23.360;2023-05-24T03:18:53;95132.94;;;12.36;100.00
3096;BME280;1558;42.700;23.360;2023-05-24T03:21:22;95138.28;;;12.33;100.00
3096;BME280;1558;42.700;23.360;2023-05-24T03:23:51;95127.09;;;12.34;100.00
3096;BME280;1558;42.700;23.360;2023-05-24T03:26:20;95129.13;;;12.37;100.00
3096;BME280;1558;42.700;23.360;2023-05-24T03:28:49;95138.28;;;12.33;100.00
3096;BME280;1558;42.700;23.360;2023-05-24T03:31:17;95137.22;;;12.21;100.00
3096;BME280;1558;42.700;23.360;2023-05-24T03:33:46;95132.31;;;12.11;100.00
3096;BME280;1558;42.700;23.360;2023-05-24T03:36:14;95138.38;;;12.08;100.00
3096;BME280;1558;42.700;23.360;2023-05-24T03:38:42;95142.97;;;12.20;100.00
3096;BME280;1558;42.700;23.360;2023-05-24T03:41:11;95147.94;;;12.18;100.00
3096;BME280;1558;42.700;23.360;2023-05-24T03:43:40;95124.88;;;11.81;100.00
3096;BME280;1558;42.700;23.360;2023-05-24T03:46:09;95156.44;;;12.04;100.00
3096;BME280;1558;42.700;23.360;2023-05-24T03:48:38;95141.44;;;12.07;100.00
3096;BME280;1558;42.700;23.360;2023-05-24T03:51:06;95135.72;;;11.96;100.00
3096;BME280;1558;42.700;23.360;2023-05-24T03:53:34;95138.88;;;11.98;100.00
3096;BME280;1558;42.700;23.360;2023-05-24T03:56:02;95141.78;;;12.05;100.00
3096;BME280;1558;42.700;23.360;2023-05-24T03:58:30;95153.06;;;12.07;100.00
3096;BME280;1558;42.700;23.360;2023-05-24T04:01:00;95139.88;;;12.06;100.00
3096;BME280;1558;42.700;23.360;2023-05-24T04:03:29;95126.94;;;11.99;100.00
3096;BME280;1558;42.700;23.360;2023-05-24T04:05:59;95135.44;;;12.13;100.00
3096;BME280;1558;42.700;23.360;2023-05-24T04:08:28;95130.97;;;12.33;100.00
3096;BME280;1558;42.700;23.360;2023-05-24T04:10:57;95141.78;;;12.49;100.00
3096;BME280;1558;42.700;23.360;2023-05-24T04:13:25;95151.69;;;12.72;100.00
3096;BME280;1558;42.700;23.360;2023-05-24T04:15:53;95148.09;;;12.84;100.00
3096;BME280;1558;42.700;23.360;2023-05-24T04:18:23;95154.75;;;12.71;100.00
3096;BME280;1558;42.700;23.360;2023-05-24T04:20:51;95157.78;;;12.69;100.00
3096;BME280;1558;42.700;23.360;2023-05-24T04:23:19;95152.28;;;12.81;100.00
3096;BME280;1558;42.700;23.360;2023-05-24T04:25:47;95140.78;;;12.84;100.00
3096;BME280;1558;42.700;23.360;2023-05-24T04:28:15;95152.16;;;13.06;100.00
3096;BME280;1558;42.700;23.360;2023-05-24T04:30:43;95164.31;;;13.12;100.00
3096;BME280;1558;42.700;23.360;2023-05-24T04:33:11;95159.81;;;13.19;100.00
3096;BME280;1558;42.700;23.360;2023-05-24T04:35:41;95165.25;;;13.19;100.00
3096;BME280;1558;42.700;23.360;2023-05-24T04:38:10;95113.44;;;12.89;100.00
3096;BME280;1558;42.700;23.360;2023-05-24T04:40:38;95168.13;;;13.42;100.00
3096;BME280;1558;42.700;23.360;2023-05-24T04:43:07;95159.38;;;13.48;100.00
3096;BME280;1558;42.700;23.360;2023-05-24T04:45:36;95164.19;;;13.74;100.00
3096;BME280;1558;42.700;23.360;2023-05-24T04:48:04;95166.16;;;13.93;100.00
3096;BME280;1558;42.700;23.360;2023-05-24T04:50:32;95170.25;;;14.02;100.00
3096;BME280;1558;42.700;23.360;2023-05-24T04:53:04;95167.81;;;14.16;100.00
3096;BME280;1558;42.700;23.360;2023-05-24T04:55:32;95172.31;;;14.28;100.00
3096;BME280;1558;42.700;23.360;2023-05-24T04:58:01;95169.44;;;14.78;100.00
3096;BME280;1558;42.700;23.360;2023-05-24T05:00:29;95181.00;;;15.21;100.00
3096;BME280;1558;42.700;23.360;2023-05-24T05:02:58;95177.63;;;15.27;100.00
3096;BME280;1558;42.700;23.360;2023-05-24T05:05:26;95183.69;;;15.43;100.00
3096;BME280;1558;42.700;23.360;2023-05-24T08:51:26;95159.75;;;29.96;34.23
3096;BME280;1558;42.700;23.360;2023-05-24T08:53:56;95158.63;;;29.84;32.99
3096;BME280;1558;42.700;23.360;2023-05-24T08:56:48;95155.59;;;28.77;34.11
3096;BME280;1558;42.700;23.360;2023-05-24T08:59:30;95146.94;;;28.97;34.11
3096;BME280;1558;42.700;23.360;2023-05-24T09:02:03;95158.63;;;29.44;34.08
3096;BME280;1558;42.700;23.360;2023-05-24T09:04:32;95152.00;;;29.51;34.34
3096;BME280;1558;42.700;23.360;2023-05-24T09:07:09;95155.66;;;29.39;35.17
3096;BME280;1558;42.700;23.360;2023-05-24T09:09:42;95159.97;;;29.09;34.91
3096;BME280;1558;42.700;23.360;2023-05-24T09:12:43;95155.91;;;30.11;33.99
3096;BME280;1558;42.700;23.360;2023-05-24T09:15:47;95150.00;;;30.00;34.29
3096;BME280;1558;42.700;23.360;2023-05-24T09:18:22;95160.09;;;29.06;32.31
3096;BME280;1558;42.700;23.360;2023-05-24T09:20:52;95160.75;;;27.60;33.29
3096;BME280;1558;42.700;23.360;2023-05-24T09:23:27;95153.59;;;28.78;32.78
3096;BME280;1558;42.700;23.360;2023-05-24T09:25:57;95088.06;;;29.51;32.19
3096;BME280;1558;42.700;23.360;2023-05-24T09:28:33;95150.13;;;29.17;32.17
3096;BME280;1558;42.700;23.360;2023-05-24T09:31:53;95159.97;;;29.31;33.11
3096;BME280;1558;42.700;23.360;2023-05-24T09:37:44;95150.03;;;29.21;32.27
3096;BME280;1558;42.700;23.360;2023-05-24T09:40:44;95151.78;;;29.36;32.99
3096;BME280;1558;42.700;23.360;2023-05-24T09:55:47;95139.69;;;30.28;31.21
3096;BME280;1558;42.700;23.360;2023-05-24T11:04:15;95085.63;;;28.92;29.95
3096;BME280;1558;42.700;23.360;2023-05-24T11:07:20;95088.41;;;29.22;30.20
3096;BME280;1558;42.700;23.360;2023-05-24T11:09:55;95087.47;;;29.74;29.56
3096;BME280;1558;42.700;23.360;2023-05-24T11:12:43;95084.66;;;29.47;29.31
3096;BME280;1558;42.700;23.360;2023-05-24T11:15:26;95066.53;;;29.33;30.11
3096;BME280;1558;42.700;23.360;2023-05-24T11:21:10;95086.63;;;30.68;29.02
3096;BME280;1558;42.700;23.360;2023-05-24T11:23:40;95064.63;;;30.79;28.60
3096;BME280;1558;42.700;23.360;2023-05-24T11:26:08;95095.44;;;30.85;28.50
3096;BME280;1558;42.700;23.360;2023-05-24T11:28:36;95066.69;;;30.06;28.61
3096;BME280;1558;42.700;23.360;2023-05-24T11:31:07;95061.91;;;29.30;29.26
3096;BME280;1558;42.700;23.360;2023-05-24T11:33:44;95077.97;;;29.93;29.47
3096;BME280;1558;42.700;23.360;2023-05-24T11:36:15;95070.97;;;29.71;29.46
3096;BME280;1558;42.700;23.360;2023-05-24T11:38:43;95061.13;;;30.15;28.33
3096;BME280;1558;42.700;23.360;2023-05-24T11:41:13;95070.19;;;30.79;28.36
3096;BME280;1558;42.700;23.360;2023-05-24T11:43:41;95062.28;;;30.96;27.71
3096;BME280;1558;42.700;23.360;2023-05-24T11:46:09;95060.19;;;30.63;27.69
3096;BME280;1558;42.700;23.360;2023-05-24T11:48:38;95059.47;;;30.36;28.16
3096;BME280;1558;42.700;23.360;2023-05-24T11:51:07;95059.94;;;29.49;28.58
3096;BME280;1558;42.700;23.360;2023-05-24T11:53:40;95039.22;;;29.41;29.35
3096;BME280;1558;42.700;23.360;2023-05-24T11:56:10;95039.09;;;29.05;29.77
3096;BME280;1558;42.700;23.360;2023-05-24T11:58:43;95040.97;;;29.57;29.77
3096;BME280;1558;42.700;23.360;2023-05-24T12:01:23;95033.13;;;30.00;30.03
3096;BME280;1558;42.700;23.360;2023-05-24T12:03:51;95032.06;;;30.34;28.75
3096;BME280;1558;42.700;23.360;2023-05-24T12:06:38;95030.50;;;30.15;28.84
3096;BME280;1558;42.700;23.360;2023-05-24T12:09:13;95031.75;;;29.20;30.05
3096;BME280;1558;42.700;23.360;2023-05-24T12:11:46;95030.63;;;28.34;30.50
3096;BME280;1558;42.700;23.360;2023-05-24T12:14:16;95025.31;;;27.49;31.48
3096;BME280;1558;42.700;23.360;2023-05-24T12:16:45;95027.41;;;26.70;33.15
3096;BME280;1558;42.700;23.360;2023-05-24T12:19:17;95041.38;;;26.12;34.41
3096;BME280;1558;42.700;23.360;2023-05-24T12:21:59;95024.22;;;26.17;35.24
3096;BME280;1558;42.700;23.360;2023-05-24T12:24:30;94902.75;;;26.10;34.20
3096;BME280;1558;42.700;23.360;2023-05-24T12:27:00;94970.69;;;27.25;33.46
3096;BME280;1558;42.700;23.360;2023-05-24T12:29:33;95010.00;;;27.79;33.60
3096;BME280;1558;42.700;23.360;2023-05-24T12:32:03;95010.19;;;27.97;32.73
3096;BME280;1558;42.700;23.360;2023-05-24T12:34:32;95009.81;;;28.08;33.20
3096;BME280;1558;42.700;23.360;2023-05-24T12:37:01;95006.38;;;27.70;33.81
3096;BME280;1558;42.700;23.360;2023-05-24T12:39:31;95011.13;;;27.82;33.80
3096;BME280;1558;42.700;23.360;2023-05-24T12:42:01;95000.44;;;27.59;32.50
3096;BME280;1558;42.700;23.360;2023-05-24T12:44:31;94978.03;;;27.66;33.53
3096;BME280;1558;42.700;23.360;2023-05-24T12:47:01;94998.06;;;28.04;33.34
3096;BME280;1558;42.700;23.360;2023-05-24T12:49:30;94983.81;;;27.59;33.11
3096;BME280;1558;42.700;23.360;2023-05-24T12:51:59;94991.66;;;27.13;33.31
3096;BME280;1558;42.700;23.360;2023-05-24T12:54:28;95002.50;;;26.45;34.75
3096;BME280;1558;42.700;23.360;2023-05-24T12:56:58;95000.06;;;26.47;35.80
3096;BME280;1558;42.700;23.360;2023-05-24T12:59:28;94949.69;;;26.52;34.84
3096;BME280;1558;42.700;23.360;2023-05-24T13:01:57;94986.34;;;26.94;34.95
3096;BME280;1558;42.700;23.360;2023-05-24T13:04:26;94975.81;;;27.14;34.06
3096;BME280;1558;42.700;23.360;2023-05-24T13:06:57;94988.09;;;27.25;34.16
3096;BME280;1558;42.700;23.360;2023-05-24T13:09:26;94978.19;;;27.49;34.36
3096;BME280;1558;42.700;23.360;2023-05-24T13:11:54;94958.31;;;27.85;33.70
3096;BME280;1558;42.700;23.360;2023-05-24T13:14:24;94981.50;;;27.57;33.23
3096;BME280;1558;42.700;23.360;2023-05-24T13:16:53;94977.47;;;27.11;34.54
3096;BME280;1558;42.700;23.360;2023-05-24T13:19:21;94980.06;;;26.93;34.89
3096;BME280;1558;42.700;23.360;2023-05-24T13:21:49;94970.88;;;26.83;35.36
3096;BME280;1558;42.700;23.360;2023-05-24T13:24:18;94977.94;;;26.72;35.05
3096;BME280;1558;42.700;23.360;2023-05-24T13:26:46;94956.69;;;26.69;35.21
3096;BME280;1558;42.700;23.360;2023-05-24T13:29:17;94980.94;;;26.77;34.85
3096;BME280;1558;42.700;23.360;2023-05-24T13:32:06;94978.25;;;26.61;34.94
3096;BME280;1558;42.700;23.360;2023-05-24T13:34:36;94969.59;;;26.34;36.37
3096;BME280;1558;42.700;23.360;2023-05-24T13:37:04;94976.34;;;26.20;36.79
3096;BME280;1558;42.700;23.360;2023-05-24T13:39:33;94982.56;;;26.08;37.93
3096;BME280;1558;42.700;23.360;2023-05-24T13:42:02;94986.81;;;25.84;38.93
3096;BME280;1558;42.700;23.360;2023-05-24T13:44:30;94986.81;;;25.84;40.02
3096;BME280;1558;42.700;23.360;2023-05-24T13:46:59;94984.41;;;25.86;39.73
3096;BME280;1558;42.700;23.360;2023-05-24T13:49:29;94989.59;;;25.39;41.69
3096;BME280;1558;42.700;23.360;2023-05-24T13:51:58;95000.75;;;24.87;43.68
3096;BME280;1558;42.700;23.360;2023-05-24T13:54:27;95002.69;;;24.35;45.30
3096;BME280;1558;42.700;23.360;2023-05-24T13:56:55;94993.44;;;24.06;44.55
3096;BME280;1558;42.700;23.360;2023-05-24T13:59:23;94999.34;;;24.08;43.90
3096;BME280;1558;42.700;23.360;2023-05-24T14:01:53;94995.72;;;24.11;43.91
3096;BME280;1558;42.700;23.360;2023-05-24T14:04:21;94996.31;;;24.22;43.48
3096;BME280;1558;42.700;23.360;2023-05-24T14:06:50;94985.81;;;24.33;43.86
3096;BME280;1558;42.700;23.360;2023-05-24T14:09:19;94998.69;;;24.56;43.75
3096;BME280;1558;42.700;23.360;2023-05-24T14:11:48;94963.44;;;24.47;43.46
3096;BME280;1558;42.700;23.360;2023-05-24T14:14:18;95000.88;;;24.64;44.21
3096;BME280;1558;42.700;23.360;2023-05-24T14:17:06;94996.38;;;24.54;44.21
3096;BME280;1558;42.700;23.360;2023-05-24T14:19:34;95006.47;;;24.61;44.83
3096;BME280;1558;42.700;23.360;2023-05-24T14:22:05;94995.88;;;24.75;44.65
3096;BME280;1558;42.700;23.360;2023-05-24T14:24:33;94988.50;;;24.88;45.52
3096;BME280;1558;42.700;23.360;2023-05-24T14:27:01;95002.66;;;25.07;46.04
3096;BME280;1558;42.700;23.360;2023-05-24T14:29:30;94993.19;;;25.08;46.18
3096;BME280;1558;42.700;23.360;2023-05-24T14:31:58;95006.25;;;25.04;44.84
3096;BME280;1558;42.700;23.360;2023-05-24T14:34:26;95003.25;;;24.98;45.27
3096;BME280;1558;42.700;23.360;2023-05-24T14:36:54;94998.59;;;25.11;45.16
3096;BME280;1558;42.700;23.360;2023-05-24T14:39:23;94998.94;;;25.13;46.27
3096;BME280;1558;42.700;23.360;2023-05-24T14:41:51;95003.16;;;25.18;45.98
3096;BME280;1558;42.700;23.360;2023-05-24T14:44:20;94996.09;;;25.01;44.86
3096;BME280;1558;42.700;23.360;2023-05-24T14:47:05;95002.31;;;25.05;43.59
3096;BME280;1558;42.700;23.360;2023-05-24T14:49:33;94997.66;;;25.02;44.44
3096;BME280;1558;42.700;23.360;2023-05-24T14:52:01;95005.41;;;24.91;43.84
3096;BME280;1558;42.700;23.360;2023-05-24T14:54:31;94936.84;;;24.01;45.81
3096;BME280;1558;42.700;23.360;2023-05-24T14:56:59;94997.56;;;23.98;46.87
3096;BME280;1558;42.700;23.360;2023-05-24T14:59:28;94996.88;;;23.51;49.27
3096;BME280;1558;42.700;23.360;2023-05-24T15:01:56;95003.31;;;22.98;51.96
3096;BME280;1558;42.700;23.360;2023-05-24T15:04:24;95000.56;;;22.71;52.72
3096;BME280;1558;42.700;23.360;2023-05-24T15:06:54;95005.75;;;22.39;53.56
3096;BME280;1558;42.700;23.360;2023-05-24T15:09:22;94998.63;;;22.15;54.48
3096;BME280;1558;42.700;23.360;2023-05-24T15:11:52;94991.81;;;22.23;53.30
3096;BME280;1558;42.700;23.360;2023-05-24T15:14:20;94988.81;;;22.41;52.15
3096;BME280;1558;42.700;23.360;2023-05-24T15:16:49;94988.25;;;22.53;49.14
3096;BME280;1558;42.700;23.360;2023-05-24T15:19:17;94964.81;;;22.45;48.65
3096;BME280;1558;42.700;23.360;2023-05-24T15:21:45;94982.66;;;22.60;49.58
3096;BME280;1558;42.700;23.360;2023-05-24T15:24:14;94984.19;;;22.64;47.68
3096;BME280;1558;42.700;23.360;2023-05-24T15:26:44;94988.00;;;22.70;46.60
3096;BME280;1558;42.700;23.360;2023-05-24T15:29:14;94984.50;;;22.93;46.47
3096;BME280;1558;42.700;23.360;2023-05-24T15:31:43;94979.84;;;23.13;45.27
3096;BME280;1558;42.700;23.360;2023-05-24T15:34:11;94988.22;;;23.29;45.54
3096;BME280;1558;42.700;23.360;2023-05-24T15:36:39;94992.28;;;23.44;44.90
3096;BME280;1558;42.700;23.360;2023-05-24T15:39:07;94989.19;;;23.42;44.65
3096;BME280;1558;42.700;23.360;2023-05-24T15:41:35;94981.34;;;23.41;44.83
3096;BME280;1558;42.700;23.360;2023-05-24T15:44:04;94991.94;;;23.42;44.17
3096;BME280;1558;42.700;23.360;2023-05-24T15:46:35;94973.78;;;23.45;44.13
3096;BME280;1558;42.700;23.360;2023-05-24T15:49:03;94996.00;;;23.58;43.36
3096;BME280;1558;42.700;23.360;2023-05-24T15:51:31;94998.25;;;23.63;43.54
3096;BME280;1558;42.700;23.360;2023-05-24T15:54:20;94948.47;;;23.30;44.03
3096;BME280;1558;42.700;23.360;2023-05-24T15:56:48;94994.94;;;23.71;42.94
3096;BME280;1558;42.700;23.360;2023-05-24T15:59:16;94984.09;;;23.61;43.74
3096;BME280;1558;42.700;23.360;2023-05-24T16:01:48;94991.97;;;23.62;42.77
3096;BME280;1558;42.700;23.360;2023-05-24T16:04:17;95004.91;;;23.85;42.35
3096;BME280;1558;42.700;23.360;2023-05-24T16:06:45;94984.56;;;23.79;43.49
3096;BME280;1558;42.700;23.360;2023-05-24T16:09:20;95011.00;;;23.96;43.56
3096;BME280;1558;42.700;23.360;2023-05-24T16:11:48;95016.66;;;24.08;43.24
3096;BME280;1558;42.700;23.360;2023-05-24T16:14:16;95021.09;;;24.02;44.12
3096;BME280;1558;42.700;23.360;2023-05-24T16:16:44;95025.81;;;23.82;45.57
3096;BME280;1558;42.700;23.360;2023-05-24T16:19:13;95023.13;;;23.79;45.74
3096;BME280;1558;42.700;23.360;2023-05-24T16:21:42;95015.69;;;23.76;46.03
3096;BME280;1558;42.700;23.360;2023-05-24T16:24:10;95024.41;;;23.74;46.47
3096;BME280;1558;42.700;23.360;2023-05-24T16:26:38;95012.78;;;23.63;47.05
3096;BME280;1558;42.700;23.360;2023-05-24T16:29:06;95006.28;;;23.53;48.16
3096;BME280;1558;42.700;23.360;2023-05-24T16:31:36;95026.16;;;23.65;48.93
3096;BME280;1558;42.700;23.360;2023-05-24T16:34:04;95031.78;;;23.58;49.45
3096;BME280;1558;42.700;23.360;2023-05-24T16:36:33;95022.94;;;23.46;49.26
3096;BME280;1558;42.700;23.360;2023-05-24T16:39:02;95021.03;;;23.43;49.00
3096;BME280;1558;42.700;23.360;2023-05-24T16:41:30;95020.69;;;23.41;49.06
3096;BME280;1558;42.700;23.360;2023-05-24T16:44:03;95022.69;;;23.37;50.18
3096;BME280;1558;42.700;23.360;2023-05-24T16:46:31;95022.44;;;23.28;49.76
3096;BME280;1558;42.700;23.360;2023-05-24T16:49:00;95019.50;;;23.16;49.71
3096;BME280;1558;42.700;23.360;2023-05-24T16:51:28;95033.22;;;23.19;49.67
3096;BME280;1558;42.700;23.360;2023-05-24T16:53:57;95018.88;;;23.08;50.12
3096;BME280;1558;42.700;23.360;2023-05-24T16:56:25;95029.13;;;23.04;49.54
3096;BME280;1558;42.700;23.360;2023-05-24T16:58:53;95021.34;;;22.99;50.27
3096;BME280;1558;42.700;23.360;2023-05-24T17:01:21;95013.56;;;22.94;50.53
3096;BME280;1558;42.700;23.360;2023-05-24T17:03:50;95022.91;;;23.00;51.84
3096;BME280;1558;42.700;23.360;2023-05-24T17:06:18;95028.19;;;22.91;51.59
3096;BME280;1558;42.700;23.360;2023-05-24T17:08:46;95025.53;;;22.84;51.81
3096;BME280;1558;42.700;23.360;2023-05-24T17:11:17;95038.19;;;22.78;51.99
3096;BME280;1558;42.700;23.360;2023-05-24T17:13:47;95038.28;;;22.71;52.22
3096;BME280;1558;42.700;23.360;2023-05-24T17:16:16;95028.22;;;22.61;52.34
3096;BME280;1558;42.700;23.360;2023-05-24T17:18:45;95034.19;;;22.56;53.34
3096;BME280;1558;42.700;23.360;2023-05-24T17:21:13;95043.34;;;22.46;53.53
3096;BME280;1558;42.700;23.360;2023-05-24T17:23:41;95041.41;;;22.43;53.81
3096;BME280;1558;42.700;23.360;2023-05-24T17:26:09;95039.13;;;22.38;54.38
3096;BME280;1558;42.700;23.360;2023-05-24T17:28:43;95011.69;;;22.04;54.92
3096;BME280;1558;42.700;23.360;2023-05-24T17:31:12;95041.25;;;22.27;55.52
3096;BME280;1558;42.700;23.360;2023-05-24T17:33:41;95051.03;;;22.27;56.03
3096;BME280;1558;42.700;23.360;2023-05-24T17:36:09;95051.53;;;22.22;56.41
3096;BME280;1558;42.700;23.360;2023-05-24T17:38:37;95053.88;;;22.20;55.93
3096;BME280;1558;42.700;23.360;2023-05-24T17:41:05;95053.97;;;22.13;56.26
3096;BME280;1558;42.700;23.360;2023-05-24T17:43:36;95050.56;;;22.02;55.95
3096;BME280;1558;42.700;23.360;2023-05-24T17:46:08;95060.41;;;22.00;55.68
3096;BME280;1558;42.700;23.360;2023-05-24T17:48:38;95069.97;;;21.88;56.13
3096;BME280;1558;42.700;23.360;2023-05-24T17:51:08;95071.56;;;21.82;57.20
3096;BME280;1558;42.700;23.360;2023-05-24T17:53:36;95080.72;;;21.72;57.53
3096;BME280;1558;42.700;23.360;2023-05-24T17:56:06;95078.84;;;21.62;57.10
3096;BME280;1558;42.700;23.360;2023-05-24T17:58:34;95077.34;;;21.54;56.88
3096;BME280;1558;42.700;23.360;2023-05-24T18:01:09;95059.91;;;21.34;56.50
3096;BME280;1558;42.700;23.360;2023-05-24T18:03:38;95082.53;;;21.45;56.67
3096;BME280;1558;42.700;23.360;2023-05-24T18:06:07;95086.06;;;21.42;57.00
3096;BME280;1558;42.700;23.360;2023-05-24T18:08:38;95083.41;;;21.35;57.47
3096;BME280;1558;42.700;23.360;2023-05-24T18:11:09;95098.34;;;21.30;58.74
3096;BME280;1558;42.700;23.360;2023-05-24T18:13:40;95092.88;;;21.27;59.35
3096;BME280;1558;42.700;23.360;2023-05-24T18:16:11;95093.31;;;21.22;58.60
3096;BME280;1558;42.700;23.360;2023-05-24T18:18:39;95104.72;;;21.20;59.02
3096;BME280;1558;42.700;23.360;2023-05-24T18:21:09;95107.47;;;21.17;58.95
3096;BME280;1558;42.700;23.360;2023-05-24T18:23:38;95111.06;;;21.10;59.01
3096;BME280;1558;42.700;23.360;2023-05-24T18:26:08;95095.84;;;20.95;58.40
3096;BME280;1558;42.700;23.360;2023-05-24T18:28:38;95116.53;;;21.07;56.93
3096;BME280;1558;42.700;23.360;2023-05-24T18:31:10;95130.19;;;21.17;57.22
3096;BME280;1558;42.700;23.360;2023-05-24T18:33:40;95128.28;;;21.11;58.22